createdAt,value
2022-10-18T00:01:59.731Z,62.74
2022-10-18T00:05:03.701Z,62.46
2022-10-18T00:08:06.444Z,63.81
2022-10-18T00:11:09.536Z,63.03
2022-10-18T00:14:12.282Z,62.93
2022-10-18T00:17:15.236Z,62.99
2022-10-18T00:20:18.013Z,64.95
2022-10-18T00:23:21.084Z,65.61
2022-10-18T00:26:26.326Z,66.78
2022-10-18T00:29:29.326Z,66.95
2022-10-18T00:32:40.201Z,67.42
2022-10-18T00:35:43.347Z,68.25
2022-10-18T00:38:46.799Z,70.62
2022-10-18T00:41:50.902Z,71.11
2022-10-18T00:45:21.378Z,70.54
2022-10-18T00:48:24.782Z,70.27
2022-10-18T00:51:31.243Z,69.34
2022-10-18T00:54:37.308Z,68.64
2022-10-18T00:57:42.345Z,68.38
2022-10-18T01:00:45.531Z,68.57
2022-10-18T01:03:48.687Z,68.54
2022-10-18T01:07:01.703Z,69.30
2022-10-18T01:10:10.546Z,69.90
2022-10-18T01:13:25.595Z,69.82
2022-10-18T01:16:44.719Z,71.42
2022-10-18T01:20:03.821Z,70.60
2022-10-18T01:23:57.576Z,70.81
2022-10-18T01:27:12.791Z,70.91
2022-10-18T01:30:33.610Z,72.59
2022-10-18T01:33:45.633Z,73.78
2022-10-18T01:36:51.071Z,75.09
2022-10-18T01:39:55.836Z,74.92
2022-10-18T01:42:58.579Z,75.43
2022-10-18T01:46:02.174Z,76.10
2022-10-18T01:49:05.329Z,76.52
2022-10-18T01:52:13.298Z,76.86
2022-10-18T01:55:16.270Z,76.68
2022-10-18T01:58:44.801Z,77.46
2022-10-18T02:02:06.971Z,77.55
2022-10-18T02:05:09.896Z,77.88
2022-10-18T02:08:24.880Z,77.84
2022-10-18T02:11:29.859Z,78.03
2022-10-18T02:14:33.361Z,78.28
2022-10-18T02:17:37.754Z,78.25
2022-10-18T02:20:40.481Z,78.11
2022-10-18T02:23:45.757Z,77.97
2022-10-18T02:26:48.489Z,77.75
2022-10-18T02:29:52.171Z,79.57
2022-10-18T02:33:03.622Z,80.48
2022-10-18T02:36:13.925Z,80.46
2022-10-18T02:39:19.648Z,81.09
2022-10-18T02:42:22.663Z,80.80
2022-10-18T02:45:26.278Z,80.63
2022-10-18T02:48:29.323Z,80.27
2022-10-18T02:51:32.189Z,80.65
2022-10-18T02:54:35.195Z,80.80
2022-10-18T02:57:37.935Z,80.63
2022-10-18T03:00:40.910Z,80.74
2022-10-18T03:03:43.628Z,80.62
2022-10-18T03:06:47.919Z,80.53
2022-10-18T03:09:50.677Z,80.32
2022-10-18T03:12:54.680Z,81.18
2022-10-18T03:15:57.423Z,81.33
2022-10-18T03:19:00.436Z,81.36
2022-10-18T03:22:03.184Z,81.43
2022-10-18T03:25:06.354Z,81.75
2022-10-18T03:28:09.126Z,81.82
2022-10-18T03:31:12.119Z,82.01
2022-10-18T03:34:15.906Z,82.25
2022-10-18T03:37:18.962Z,82.42
2022-10-18T03:40:21.853Z,82.60
2022-10-18T03:43:25.128Z,82.99
2022-10-18T03:46:27.991Z,82.87
2022-10-18T03:52:34.739Z,83.87
2022-10-18T03:55:38.271Z,84.90
2022-10-18T03:58:41.126Z,85.82
2022-10-18T04:01:44.556Z,86.24
2022-10-18T04:04:47.761Z,85.98
2022-10-18T04:07:50.862Z,85.77
2022-10-18T04:10:53.948Z,85.83
2022-10-18T04:13:56.809Z,85.91
2022-10-18T04:16:59.809Z,86.18
2022-10-18T04:20:02.530Z,86.28
2022-10-18T04:23:06.723Z,86.33
2022-10-18T04:26:09.545Z,86.73
2022-10-18T04:29:13.609Z,87.50
2022-10-18T04:32:16.314Z,87.34
2022-10-18T04:35:22.706Z,87.40
2022-10-18T04:38:25.434Z,87.67
2022-10-18T04:41:28.389Z,88.34
2022-10-18T04:44:30.951Z,88.18
2022-10-18T04:47:34.289Z,88.24
2022-10-18T04:50:37.219Z,88.24
2022-10-18T04:53:43.118Z,87.97
2022-10-18T04:56:45.820Z,88.04
2022-10-18T04:59:48.851Z,88.05
2022-10-18T05:02:58.987Z,87.75
2022-10-18T05:06:03.136Z,87.68
2022-10-18T05:09:06.293Z,87.73
2022-10-18T05:12:09.605Z,87.53
2022-10-18T05:15:12.345Z,87.57
2022-10-18T05:18:15.463Z,87.85
2022-10-18T05:21:18.538Z,87.79
2022-10-18T05:24:24.142Z,88.12
2022-10-18T05:27:30.155Z,88.60
2022-10-18T05:30:33.331Z,88.85
2022-10-18T05:33:36.427Z,88.99
2022-10-18T05:36:39.408Z,88.93
2022-10-18T05:39:42.249Z,88.89
2022-10-18T05:42:45.280Z,88.74
2022-10-18T05:45:49.431Z,88.60
2022-10-18T05:48:52.409Z,88.35
2022-10-18T05:51:55.181Z,88.24
2022-10-18T05:54:58.208Z,87.96
2022-10-18T05:58:00.948Z,87.58
2022-10-18T06:01:05.607Z,86.91
2022-10-18T06:04:10.871Z,87.10
2022-10-18T06:07:13.822Z,86.93
2022-10-18T06:10:18.108Z,86.90
2022-10-18T06:13:20.870Z,86.54
2022-10-18T06:16:28.546Z,86.41
2022-10-18T06:19:34.663Z,86.52
2022-10-18T06:22:37.687Z,86.68
2022-10-18T06:25:40.376Z,86.64
2022-10-18T06:28:43.471Z,86.16
2022-10-18T06:31:46.323Z,85.54
2022-10-18T06:34:49.300Z,84.62
2022-10-18T06:37:52.177Z,84.76
2022-10-18T06:40:57.739Z,84.64
2022-10-18T06:44:04.007Z,84.65
2022-10-18T06:47:08.169Z,83.69
2022-10-18T06:50:11.769Z,83.36
2022-10-18T06:53:14.756Z,83.09
2022-10-18T06:56:17.470Z,81.36
2022-10-18T06:59:21.639Z,81.56
2022-10-18T07:02:24.394Z,79.89
2022-10-18T07:05:28.475Z,79.10
2022-10-18T07:08:31.653Z,79.37
2022-10-18T07:11:34.807Z,78.51
2022-10-18T07:14:37.548Z,78.35
2022-10-18T07:17:40.591Z,77.85
2022-10-18T07:20:43.355Z,77.55
2022-10-18T07:23:47.265Z,77.13
2022-10-18T07:26:50.392Z,77.35
2022-10-18T07:29:53.444Z,78.28
2022-10-18T07:32:56.464Z,77.84
2022-10-18T07:36:04.871Z,76.38
2022-10-18T07:39:07.912Z,76.00
2022-10-18T07:42:10.934Z,76.24
2022-10-18T07:45:14.777Z,75.33
2022-10-18T07:48:18.008Z,75.07
2022-10-18T07:51:22.241Z,74.28
2022-10-18T07:54:25.234Z,75.23
2022-10-18T07:57:28.018Z,73.42
2022-10-18T08:00:31.079Z,73.68
2022-10-18T08:03:34.840Z,72.61
2022-10-18T08:06:37.557Z,73.18
2022-10-18T08:09:40.633Z,71.87
2022-10-18T08:12:43.422Z,71.60
2022-10-18T08:15:46.588Z,71.65
2022-10-18T08:18:49.467Z,70.84
2022-10-18T08:21:52.507Z,70.09
2022-10-18T08:24:55.200Z,70.20
2022-10-18T08:27:58.849Z,69.94
2022-10-18T08:31:06.039Z,70.33
2022-10-18T08:34:09.949Z,69.49
2022-10-18T08:37:12.684Z,68.78
2022-10-18T08:40:16.107Z,67.26
2022-10-18T08:43:29.194Z,68.63
2022-10-18T08:46:36.385Z,65.42
2022-10-18T08:49:45.632Z,65.22
2022-10-18T08:53:20.185Z,64.51
2022-10-18T08:56:24.593Z,63.88
2022-10-18T08:59:34.407Z,63.41
2022-10-18T09:02:46.459Z,62.84
2022-10-18T09:05:55.611Z,62.99
2022-10-18T09:09:13.583Z,62.70
2022-10-18T09:12:42.939Z,62.39
2022-10-18T09:15:59.918Z,61.72
2022-10-18T09:19:11.810Z,60.68
2022-10-18T09:22:18.648Z,59.30
2022-10-18T09:25:37.885Z,58.79
2022-10-18T09:28:53.288Z,58.79
2022-10-18T09:31:58.957Z,58.77
2022-10-18T09:35:21.153Z,54.52
2022-10-18T09:38:28.329Z,52.25
2022-10-18T09:41:52.269Z,51.13
2022-10-18T09:44:59.947Z,49.89
2022-10-18T09:48:29.548Z,48.83
2022-10-18T09:51:37.784Z,46.95
2022-10-18T09:54:44.428Z,44.94
2022-10-18T09:57:51.350Z,45.11
2022-10-18T10:00:55.600Z,44.00
2022-10-18T10:03:58.716Z,45.00
2022-10-18T10:07:02.827Z,45.69
2022-10-18T10:10:11.232Z,44.78
2022-10-18T10:13:23.188Z,45.48
2022-10-18T10:16:27.172Z,45.66
2022-10-18T10:19:37.592Z,46.47
2022-10-18T10:22:42.050Z,45.57
2022-10-18T10:25:51.807Z,44.21
2022-10-18T10:28:55.152Z,44.63
2022-10-18T10:32:04.655Z,43.25
2022-10-18T10:35:33.957Z,43.36
2022-10-18T10:38:44.590Z,41.79
2022-10-18T10:42:00.109Z,42.45
2022-10-18T10:45:02.883Z,41.06
2022-10-18T10:48:14.923Z,40.49
2022-10-18T10:51:29.562Z,41.95
2022-10-18T10:54:47.550Z,39.31
2022-10-18T10:57:54.247Z,39.94
2022-10-18T11:00:58.080Z,39.52
2022-10-18T11:04:22.187Z,38.97
2022-10-18T11:07:30.450Z,37.59
2022-10-18T11:10:35.204Z,38.66
2022-10-18T11:13:50.037Z,38.57
2022-10-18T11:17:07.738Z,36.32
2022-10-18T11:20:38.370Z,37.73
2022-10-18T11:23:42.813Z,36.16
2022-10-18T11:26:54.661Z,36.49
2022-10-18T11:30:13.770Z,34.67
2022-10-18T11:33:56.220Z,33.09
2022-10-18T11:37:27.182Z,32.67
2022-10-18T11:40:49.981Z,31.67
2022-10-18T11:44:03.570Z,30.89
2022-10-18T11:47:52.274Z,32.34
2022-10-18T11:51:04.570Z,29.57
2022-10-18T11:54:26.996Z,30.01
2022-10-18T11:57:37.953Z,29.81
2022-10-18T12:00:45.980Z,31.31
2022-10-18T12:04:09.127Z,29.40
2022-10-18T12:07:14.208Z,28.30
2022-10-18T12:10:26.318Z,27.39
2022-10-18T12:13:47.051Z,28.58
2022-10-18T12:16:52.365Z,27.11
2022-10-18T12:20:04.861Z,25.96
2022-10-18T12:23:35.268Z,25.34
2022-10-18T12:26:38.183Z,25.77
2022-10-18T12:30:03.508Z,25.89
2022-10-18T12:33:27.191Z,26.64
2022-10-18T12:36:43.919Z,24.95
2022-10-18T12:40:10.251Z,24.85
2022-10-18T12:43:36.981Z,24.21
2022-10-18T12:46:57.625Z,23.87
2022-10-18T12:50:06.855Z,22.05
2022-10-18T12:53:09.571Z,22.65
2022-10-18T12:56:27.966Z,23.03
2022-10-18T12:59:30.623Z,23.78
2022-10-18T13:02:33.977Z,24.34
2022-10-18T13:05:54.673Z,24.83
2022-10-18T13:09:17.189Z,23.08
2022-10-18T13:12:19.817Z,21.26
2022-10-18T13:15:46.328Z,22.75
2022-10-18T13:18:58.957Z,23.10
2022-10-18T13:22:15.297Z,23.15
2022-10-18T13:25:23.701Z,24.32
2022-10-18T13:28:39.789Z,22.73
2022-10-18T13:31:48.810Z,22.30
2022-10-18T13:34:51.879Z,23.34
2022-10-18T13:37:59.915Z,24.29
2022-10-18T13:41:12.850Z,23.82
2022-10-18T13:44:28.842Z,23.27
2022-10-18T13:47:37.157Z,22.66
2022-10-18T13:50:42.128Z,23.66
2022-10-18T13:54:01.120Z,22.31
2022-10-18T13:57:32.252Z,23.92
2022-10-18T14:00:58.763Z,22.15
2022-10-18T14:04:20.579Z,21.43
2022-10-18T14:07:25.756Z,22.94
2022-10-18T14:10:57.262Z,22.77
2022-10-18T14:14:23.238Z,22.38
2022-10-18T14:17:35.948Z,20.78
2022-10-18T14:21:12.175Z,21.92
2022-10-18T14:24:21.115Z,22.43
2022-10-18T14:27:26.671Z,20.04
2022-10-18T14:30:29.681Z,21.56
2022-10-18T14:33:36.225Z,22.75
2022-10-18T14:36:43.638Z,23.90
2022-10-18T14:39:46.771Z,23.87
2022-10-18T14:42:50.728Z,24.64
2022-10-18T14:45:53.543Z,26.95
2022-10-18T14:48:58.950Z,25.96
2022-10-18T14:52:01.842Z,24.91
2022-10-18T14:55:05.295Z,25.19
2022-10-18T14:58:14.510Z,27.33
2022-10-18T15:01:18.753Z,28.10
2022-10-18T15:04:27.704Z,27.40
2022-10-18T15:07:32.610Z,26.96
2022-10-18T15:10:35.511Z,27.03
2022-10-18T15:13:46.598Z,26.95
2022-10-18T15:16:50.738Z,26.69
2022-10-18T15:20:01.808Z,27.40
2022-10-18T15:23:32.646Z,26.13
2022-10-18T15:26:35.656Z,28.81
2022-10-18T15:29:38.414Z,29.25
2022-10-18T15:33:09.878Z,29.32
2022-10-18T15:36:24.992Z,33.21
2022-10-18T15:39:32.296Z,34.64
2022-10-18T15:42:37.428Z,36.20
2022-10-18T15:45:49.139Z,37.60
2022-10-18T15:48:51.843Z,40.40
2022-10-18T15:52:15.840Z,41.18
2022-10-18T15:55:30.706Z,43.73
2022-10-18T15:58:39.172Z,44.38
2022-10-18T16:01:43.858Z,44.71
2022-10-18T16:04:47.839Z,45.16
2022-10-18T16:07:53.656Z,46.03
2022-10-18T16:10:58.903Z,47.08
2022-10-18T16:14:01.791Z,47.50
2022-10-18T16:17:06.410Z,48.06
2022-10-18T16:20:19.530Z,48.64
2022-10-18T16:23:26.270Z,49.37
2022-10-18T16:26:29.551Z,49.97
2022-10-18T16:29:35.424Z,49.91
2022-10-18T16:32:38.204Z,50.36
2022-10-18T16:35:41.264Z,51.13
2022-10-18T16:38:44.347Z,50.72
2022-10-18T16:41:51.787Z,51.16
2022-10-18T16:44:55.143Z,51.01
2022-10-18T16:47:58.389Z,51.12
2022-10-18T16:51:01.415Z,51.46
2022-10-18T16:54:05.555Z,50.23
2022-10-18T16:57:11.915Z,52.31
2022-10-18T17:00:22.172Z,52.10
2022-10-18T17:03:25.810Z,53.17
2022-10-18T17:06:30.445Z,52.60
2022-10-18T17:09:35.501Z,51.45
2022-10-18T17:12:38.910Z,52.47
2022-10-18T17:15:45.000Z,51.61
2022-10-18T17:18:48.812Z,51.90
2022-10-18T17:21:51.853Z,50.22
2022-10-18T17:24:55.202Z,55.79
2022-10-18T17:27:58.445Z,55.18
2022-10-18T17:31:03.169Z,55.12
2022-10-18T17:34:06.892Z,55.44
2022-10-18T17:37:10.321Z,54.77
2022-10-18T17:40:13.938Z,53.84
2022-10-18T17:43:17.559Z,53.94
2022-10-18T17:46:21.507Z,53.12
2022-10-18T17:49:24.991Z,52.10
2022-10-18T17:52:27.985Z,54.55
2022-10-18T17:55:31.701Z,55.43
2022-10-18T17:58:35.720Z,55.93
2022-10-18T18:01:39.571Z,56.63
2022-10-18T18:04:43.065Z,55.41
2022-10-18T18:07:46.980Z,54.13
2022-10-18T18:10:54.967Z,53.46
2022-10-18T18:13:58.790Z,52.66
2022-10-18T18:17:02.574Z,52.60
2022-10-18T18:20:06.541Z,53.95
2022-10-18T18:23:10.704Z,53.39
2022-10-18T18:26:14.812Z,53.41
2022-10-18T18:29:23.559Z,53.25
2022-10-18T18:32:27.309Z,54.83
2022-10-18T18:35:31.114Z,55.72
2022-10-18T18:38:35.929Z,56.61
2022-10-18T18:41:39.932Z,56.95
2022-10-18T18:44:46.311Z,57.93
2022-10-18T18:47:51.138Z,57.21
2022-10-18T18:50:54.584Z,56.57
2022-10-18T18:53:58.259Z,56.05
2022-10-18T18:57:05.650Z,56.31
2022-10-18T19:00:10.588Z,57.29
2022-10-18T19:03:16.031Z,57.60
2022-10-18T19:06:40.945Z,58.50
2022-10-18T19:09:48.703Z,59.37
2022-10-18T19:12:52.207Z,59.37
2022-10-18T19:16:38.214Z,60.09
2022-10-18T19:19:41.686Z,60.77
2022-10-18T19:22:46.090Z,61.38
2022-10-18T19:25:49.798Z,60.68
2022-10-18T19:28:53.608Z,59.03
2022-10-18T19:31:59.725Z,58.66
2022-10-18T19:35:03.047Z,57.67
2022-10-18T19:38:06.620Z,57.17
2022-10-18T19:41:09.955Z,57.04
2022-10-18T19:44:13.948Z,56.54
2022-10-18T19:47:17.281Z,60.23
2022-10-18T19:50:20.918Z,62.12
2022-10-18T19:53:25.144Z,62.32
2022-10-18T19:56:31.013Z,62.62
2022-10-18T19:59:36.138Z,63.54
2022-10-18T20:02:39.322Z,63.56
2022-10-18T20:05:42.704Z,64.28
2022-10-18T20:08:45.495Z,64.25
2022-10-18T20:11:49.798Z,62.61
2022-10-18T20:14:52.786Z,60.67
2022-10-18T20:17:56.863Z,61.36
2022-10-18T20:21:00.024Z,61.18
2022-10-18T20:24:06.686Z,60.99
2022-10-18T20:27:09.621Z,60.68
2022-10-18T20:30:12.668Z,60.31
2022-10-18T20:33:15.714Z,60.28
2022-10-18T20:36:20.551Z,60.51
2022-10-18T20:39:23.967Z,61.00
2022-10-18T20:42:27.040Z,61.10
2022-10-18T20:45:29.742Z,61.67
2022-10-18T20:48:33.704Z,62.74
2022-10-18T20:51:36.526Z,63.80
2022-10-18T20:54:39.829Z,63.36
2022-10-18T20:57:43.177Z,64.05
2022-10-18T21:00:46.406Z,63.99
2022-10-18T21:03:50.381Z,65.15
2022-10-18T21:06:53.461Z,65.35
2022-10-18T21:09:56.342Z,65.17
2022-10-18T21:12:59.348Z,64.43
2022-10-18T21:16:03.262Z,62.95
2022-10-18T21:19:08.694Z,63.56
2022-10-18T21:22:11.500Z,65.91
2022-10-18T21:25:14.620Z,65.98
2022-10-18T21:28:17.443Z,65.81
2022-10-18T21:31:23.019Z,66.24
2022-10-18T21:34:26.443Z,68.61
2022-10-18T21:37:29.803Z,68.78
2022-10-18T21:40:35.515Z,69.12
2022-10-18T21:43:44.325Z,70.90
2022-10-18T21:46:47.133Z,70.64
2022-10-18T21:49:50.152Z,70.94
2022-10-18T21:52:53.128Z,71.66
2022-10-18T21:55:56.113Z,71.96
2022-10-18T21:58:59.536Z,71.84
2022-10-18T22:02:03.094Z,72.21
2022-10-18T22:05:08.377Z,72.81
2022-10-18T22:08:13.996Z,72.83
2022-10-18T22:11:18.800Z,72.06
2022-10-18T22:14:22.014Z,71.81
2022-10-18T22:17:25.078Z,70.99
2022-10-18T22:20:28.111Z,70.73
2022-10-18T22:23:42.725Z,71.05
2022-10-18T22:26:46.181Z,70.71
2022-10-18T22:29:49.288Z,71.18
2022-10-18T22:32:52.053Z,71.55
2022-10-18T22:35:55.104Z,72.00
2022-10-18T22:38:57.903Z,72.24
2022-10-18T22:42:00.924Z,73.00
2022-10-18T22:45:03.906Z,73.45
2022-10-18T22:48:08.239Z,74.19
2022-10-18T22:51:11.900Z,73.75
2022-10-18T22:54:15.195Z,72.90
2022-10-18T22:57:17.917Z,73.13
2022-10-18T23:00:20.910Z,73.17
2022-10-18T23:03:23.660Z,77.10
2022-10-18T23:06:32.204Z,78.07
2022-10-18T23:09:35.036Z,77.87
2022-10-18T23:12:38.080Z,77.75
2022-10-18T23:15:40.833Z,77.63
2022-10-18T23:18:43.959Z,77.53
2022-10-18T23:21:46.810Z,77.65
2022-10-18T23:24:49.928Z,78.55
2022-10-18T23:27:52.690Z,79.15
2022-10-18T23:30:56.113Z,79.46
2022-10-18T23:34:03.470Z,79.16
2022-10-18T23:37:07.335Z,77.33
2022-10-18T23:40:10.446Z,77.60
2022-10-18T23:43:14.239Z,77.37
2022-10-18T23:46:17.819Z,76.50
2022-10-18T23:49:20.851Z,76.68
2022-10-18T23:52:24.922Z,76.40
2022-10-18T23:55:27.926Z,75.79
2022-10-18T23:58:31.902Z,76.11
